London, West Virginia
Current Conditions -  °F | °C
As of 7:54 AM on Thursday 27 Nov 2014 (Local Time) from KCRW Reporting Station
Haze Haze  
Wind Chill: 30°   Ceiling: 400
Heat Index: 35°   Visibility: 1.5mi
Dew Point: 33°   Wind: 6mph
Humidity: 92%   Direction: 270°W
Pressure: 30.09"   Gusts: NA
Location:  38.19°N, 81.37°W
Report Text: KCRW 271254Z 27005KT 1 1/2SM BR BKN004 OVC014 02/01 A3009 RMK AO2 SNE10 SLP194 CIG RGD P0000 T00170006
Loading
Personal Weather Stations






























Interactive Weather Map New forecast layout! Learn more

10-Day Weather Forecast

Advertisements
Track Severe Weather on mobile